sensor_id;sensor_type;location;lat;lon;timestamp;P1;durP1;ratioP1;P2;durP2;ratioP2
43311;SDS011;30041;48.300;16.352;2023-03-23T16:11:16;18.67;;;1.93;;
43311;SDS011;30041;48.300;16.352;2023-03-23T16:16:53;6.22;;;1.80;;
43311;SDS011;30041;48.300;16.352;2023-03-23T16:19:19;5.82;;;1.50;;
43311;SDS011;30041;48.300;16.352;2023-03-23T16:21:44;5.38;;;1.85;;
43311;SDS011;30041;48.300;16.352;2023-03-23T16:24:10;8.23;;;2.15;;
43311;SDS011;30041;48.300;16.352;2023-03-23T16:26:36;6.97;;;1.85;;
43311;SDS011;30041;48.300;16.352;2023-03-23T16:29:07;7.25;;;2.10;;
43311;SDS011;30041;48.300;16.352;2023-03-23T16:31:35;9.88;;;1.88;;
43311;SDS011;30041;48.300;16.352;2023-03-23T16:34:00;8.30;;;2.20;;
43311;SDS011;30041;48.300;16.352;2023-03-23T16:36:26;11.75;;;2.65;;
43311;SDS011;30041;48.300;16.352;2023-03-23T16:38:51;6.68;;;2.60;;
43311;SDS011;30041;48.300;16.352;2023-03-23T16:41:17;14.35;;;2.92;;
43311;SDS011;30041;48.300;16.352;2023-03-23T16:43:42;16.88;;;3.35;;
43311;SDS011;30041;48.300;16.352;2023-03-23T16:46:08;7.80;;;2.72;;
43311;SDS011;30041;48.300;16.352;2023-03-23T16:48:36;9.13;;;3.05;;
43311;SDS011;30041;48.300;16.352;2023-03-23T16:51:01;8.27;;;2.95;;
43311;SDS011;30041;48.300;16.352;2023-03-23T16:53:27;10.75;;;2.95;;
43311;SDS011;30041;48.300;16.352;2023-03-23T16:55:52;9.15;;;3.25;;
43311;SDS011;30041;48.300;16.352;2023-03-23T16:58:18;15.18;;;3.38;;
43311;SDS011;30041;48.300;16.352;2023-03-23T17:00:46;7.93;;;2.90;;
43311;SDS011;30041;48.300;16.352;2023-03-23T17:03:13;7.95;;;2.38;;
43311;SDS011;30041;48.300;16.352;2023-03-23T17:05:38;12.43;;;2.92;;
43311;SDS011;30041;48.300;16.352;2023-03-23T17:08:04;8.40;;;2.65;;
43311;SDS011;30041;48.300;16.352;2023-03-23T17:10:30;8.05;;;2.95;;
43311;SDS011;30041;48.300;16.352;2023-03-23T17:12:56;12.57;;;3.00;;
43311;SDS011;30041;48.300;16.352;2023-03-23T17:15:21;10.68;;;2.55;;
43311;SDS011;30041;48.300;16.352;2023-03-23T17:17:47;7.82;;;2.63;;
43311;SDS011;30041;48.300;16.352;2023-03-23T17:20:13;15.18;;;3.00;;
43311;SDS011;30041;48.300;16.352;2023-03-23T17:22:39;14.02;;;3.70;;
43311;SDS011;30041;48.300;16.352;2023-03-23T17:25:04;8.55;;;3.00;;
43311;SDS011;30041;48.300;16.352;2023-03-23T17:27:31;9.27;;;2.92;;
43311;SDS011;30041;48.300;16.352;2023-03-23T17:29:58;13.25;;;2.80;;
43311;SDS011;30041;48.300;16.352;2023-03-23T17:32:23;9.35;;;2.85;;
43311;SDS011;30041;48.300;16.352;2023-03-23T17:34:49;7.25;;;2.78;;
43311;SDS011;30041;48.300;16.352;2023-03-23T17:37:15;7.72;;;2.55;;
43311;SDS011;30041;48.300;16.352;2023-03-23T17:39:41;7.90;;;2.83;;
43311;SDS011;30041;48.300;16.352;2023-03-23T17:42:07;5.32;;;2.55;;
43311;SDS011;30041;48.300;16.352;2023-03-23T17:44:32;13.43;;;3.00;;
43311;SDS011;30041;48.300;16.352;2023-03-23T17:46:58;4.70;;;2.60;;
43311;SDS011;30041;48.300;16.352;2023-03-23T17:49:23;13.32;;;3.30;;
43311;SDS011;30041;48.300;16.352;2023-03-23T17:51:49;12.77;;;3.00;;
43311;SDS011;30041;48.300;16.352;2023-03-23T17:54:14;11.43;;;3.17;;
43311;SDS011;30041;48.300;16.352;2023-03-23T17:56:40;10.50;;;2.65;;
43311;SDS011;30041;48.300;16.352;2023-03-23T17:59:06;10.70;;;2.92;;
43311;SDS011;30041;48.300;16.352;2023-03-23T18:01:31;6.47;;;2.60;;
43311;SDS011;30041;48.300;16.352;2023-03-23T18:03:57;9.60;;;2.95;;
43311;SDS011;30041;48.300;16.352;2023-03-23T18:06:23;9.18;;;2.40;;
43311;SDS011;30041;48.300;16.352;2023-03-23T18:08:48;7.43;;;2.42;;
43311;SDS011;30041;48.300;16.352;2023-03-23T18:11:14;13.35;;;2.50;;
43311;SDS011;30041;48.300;16.352;2023-03-23T18:13:39;4.97;;;2.40;;
43311;SDS011;30041;48.300;16.352;2023-03-23T18:16:05;5.93;;;2.53;;
43311;SDS011;30041;48.300;16.352;2023-03-23T18:18:31;5.07;;;2.45;;
43311;SDS011;30041;48.300;16.352;2023-03-23T18:20:58;5.35;;;2.40;;
43311;SDS011;30041;48.300;16.352;2023-03-23T18:23:29;4.68;;;2.28;;
43311;SDS011;30041;48.300;16.352;2023-03-23T18:25:56;3.85;;;2.05;;
43311;SDS011;30041;48.300;16.352;2023-03-23T18:28:21;4.50;;;2.40;;
43311;SDS011;30041;48.300;16.352;2023-03-23T18:30:47;3.60;;;2.00;;
43311;SDS011;30041;48.300;16.352;2023-03-23T18:33:14;3.67;;;2.22;;
43311;SDS011;30041;48.300;16.352;2023-03-23T18:35:40;3.50;;;2.00;;
43311;SDS011;30041;48.300;16.352;2023-03-23T18:38:06;5.00;;;2.30;;
43311;SDS011;30041;48.300;16.352;2023-03-23T18:40:31;4.55;;;2.17;;
43311;SDS011;30041;48.300;16.352;2023-03-23T18:42:57;8.00;;;2.45;;
43311;SDS011;30041;48.300;16.352;2023-03-23T18:45:22;4.43;;;1.98;;
43311;SDS011;30041;48.300;16.352;2023-03-23T18:47:48;4.82;;;2.17;;
43311;SDS011;30041;48.300;16.352;2023-03-23T18:50:13;4.80;;;2.38;;
43311;SDS011;30041;48.300;16.352;2023-03-23T18:52:39;7.30;;;2.17;;
43311;SDS011;30041;48.300;16.352;2023-03-23T18:55:05;5.57;;;2.08;;
43311;SDS011;30041;48.300;16.352;2023-03-23T18:57:30;7.60;;;2.17;;
43311;SDS011;30041;48.300;16.352;2023-03-23T18:59:56;3.58;;;2.10;;
43311;SDS011;30041;48.300;16.352;2023-03-23T19:02:21;4.30;;;2.15;;
43311;SDS011;30041;48.300;16.352;2023-03-23T19:04:47;5.22;;;2.05;;
43311;SDS011;30041;48.300;16.352;2023-03-23T19:07:13;6.45;;;2.05;;
43311;SDS011;30041;48.300;16.352;2023-03-23T19:09:40;8.57;;;2.30;;
43311;SDS011;30041;48.300;16.352;2023-03-23T19:12:07;5.80;;;2.38;;
43311;SDS011;30041;48.300;16.352;2023-03-23T19:14:33;7.03;;;3.88;;
43311;SDS011;30041;48.300;16.352;2023-03-23T19:16:59;10.10;;;3.85;;
43311;SDS011;30041;48.300;16.352;2023-03-23T19:19:25;10.73;;;3.67;;
43311;SDS011;30041;48.300;16.352;2023-03-23T19:21:50;13.77;;;2.92;;
43311;SDS011;30041;48.300;16.352;2023-03-23T19:24:16;11.63;;;3.30;;
43311;SDS011;30041;48.300;16.352;2023-03-23T19:26:42;11.93;;;3.40;;
43311;SDS011;30041;48.300;16.352;2023-03-23T19:29:10;10.90;;;3.10;;
43311;SDS011;30041;48.300;16.352;2023-03-23T19:31:38;12.77;;;3.10;;
43311;SDS011;30041;48.300;16.352;2023-03-23T19:34:03;10.57;;;2.80;;
43311;SDS011;30041;48.300;16.352;2023-03-23T19:36:29;6.53;;;2.40;;
43311;SDS011;30041;48.300;16.352;2023-03-23T19:38:54;7.57;;;2.85;;
43311;SDS011;30041;48.300;16.352;2023-03-23T19:41:20;9.50;;;2.90;;
43311;SDS011;30041;48.300;16.352;2023-03-23T19:43:46;6.15;;;2.60;;
43311;SDS011;30041;48.300;16.352;2023-03-23T19:46:12;7.35;;;3.00;;
43311;SDS011;30041;48.300;16.352;2023-03-23T19:48:38;8.57;;;2.85;;
43311;SDS011;30041;48.300;16.352;2023-03-23T19:51:04;6.82;;;2.80;;
43311;SDS011;30041;48.300;16.352;2023-03-23T19:53:30;6.40;;;2.80;;
43311;SDS011;30041;48.300;16.352;2023-03-23T19:55:55;4.97;;;2.53;;
43311;SDS011;30041;48.300;16.352;2023-03-23T19:58:21;6.28;;;2.50;;
43311;SDS011;30041;48.300;16.352;2023-03-23T20:00:46;5.25;;;2.50;;
43311;SDS011;30041;48.300;16.352;2023-03-23T20:03:12;4.45;;;2.22;;
43311;SDS011;30041;48.300;16.352;2023-03-23T20:05:38;6.45;;;2.63;;
43311;SDS011;30041;48.300;16.352;2023-03-23T20:08:04;4.07;;;2.20;;
43311;SDS011;30041;48.300;16.352;2023-03-23T20:10:29;5.13;;;2.30;;
43311;SDS011;30041;48.300;16.352;2023-03-23T20:12:55;5.13;;;2.40;;
43311;SDS011;30041;48.300;16.352;2023-03-23T20:15:20;5.03;;;2.05;;
43311;SDS011;30041;48.300;16.352;2023-03-23T20:17:46;4.65;;;2.03;;
43311;SDS011;30041;48.300;16.352;2023-03-23T20:20:12;4.40;;;2.15;;
43311;SDS011;30041;48.300;16.352;2023-03-23T20:22:37;7.68;;;2.30;;
43311;SDS011;30041;48.300;16.352;2023-03-23T20:25:03;6.18;;;2.30;;
43311;SDS011;30041;48.300;16.352;2023-03-23T20:27:29;4.80;;;2.25;;
43311;SDS011;30041;48.300;16.352;2023-03-23T20:29:54;3.97;;;2.08;;
43311;SDS011;30041;48.300;16.352;2023-03-23T20:32:20;4.95;;;2.15;;
43311;SDS011;30041;48.300;16.352;2023-03-23T20:34:46;4.60;;;2.13;;
43311;SDS011;30041;48.300;16.352;2023-03-23T20:37:11;3.90;;;2.17;;
43311;SDS011;30041;48.300;16.352;2023-03-23T20:39:37;5.35;;;2.10;;
43311;SDS011;30041;48.300;16.352;2023-03-23T20:42:02;4.82;;;2.20;;
43311;SDS011;30041;48.300;16.352;2023-03-23T20:44:28;3.95;;;2.05;;
43311;SDS011;30041;48.300;16.352;2023-03-23T20:46:54;3.60;;;1.90;;
43311;SDS011;30041;48.300;16.352;2023-03-23T20:49:20;3.60;;;1.92;;
43311;SDS011;30041;48.300;16.352;2023-03-23T20:51:45;3.55;;;2.00;;
43311;SDS011;30041;48.300;16.352;2023-03-23T20:54:12;4.72;;;1.90;;
43311;SDS011;30041;48.300;16.352;2023-03-23T20:56:38;2.97;;;1.65;;
43311;SDS011;30041;48.300;16.352;2023-03-23T20:59:04;2.90;;;1.80;;
43311;SDS011;30041;48.300;16.352;2023-03-23T21:01:29;3.60;;;2.08;;
43311;SDS011;30041;48.300;16.352;2023-03-23T21:03:55;2.65;;;1.73;;
43311;SDS011;30041;48.300;16.352;2023-03-23T21:06:20;2.88;;;1.80;;
43311;SDS011;30041;48.300;16.352;2023-03-23T21:08:46;3.65;;;1.90;;
43311;SDS011;30041;48.300;16.352;2023-03-23T21:11:15;3.97;;;1.95;;
43311;SDS011;30041;48.300;16.352;2023-03-23T21:13:43;3.90;;;1.65;;
43311;SDS011;30041;48.300;16.352;2023-03-23T21:16:09;2.40;;;1.70;;
43311;SDS011;30041;48.300;16.352;2023-03-23T21:18:35;2.45;;;1.60;;
43311;SDS011;30041;48.300;16.352;2023-03-23T21:21:00;4.53;;;1.63;;
43311;SDS011;30041;48.300;16.352;2023-03-23T21:23:29;2.47;;;1.63;;
43311;SDS011;30041;48.300;16.352;2023-03-23T21:25:59;2.92;;;1.65;;
43311;SDS011;30041;48.300;16.352;2023-03-23T21:28:26;2.72;;;1.75;;
43311;SDS011;30041;48.300;16.352;2023-03-23T21:30:52;3.40;;;1.70;;
43311;SDS011;30041;48.300;16.352;2023-03-23T21:33:18;3.17;;;1.52;;
43311;SDS011;30041;48.300;16.352;2023-03-23T21:35:43;2.72;;;1.42;;
43311;SDS011;30041;48.300;16.352;2023-03-23T21:38:09;3.80;;;1.40;;
43311;SDS011;30041;48.300;16.352;2023-03-23T21:40:35;3.28;;;1.50;;
43311;SDS011;30041;48.300;16.352;2023-03-23T21:43:01;2.60;;;1.50;;
43311;SDS011;30041;48.300;16.352;2023-03-23T21:45:26;2.03;;;1.52;;
43311;SDS011;30041;48.300;16.352;2023-03-23T21:47:52;2.42;;;1.63;;
43311;SDS011;30041;48.300;16.352;2023-03-23T21:50:17;2.65;;;1.45;;
43311;SDS011;30041;48.300;16.352;2023-03-23T21:52:43;1.90;;;1.40;;
43311;SDS011;30041;48.300;16.352;2023-03-23T21:55:09;2.45;;;1.40;;
43311;SDS011;30041;48.300;16.352;2023-03-23T21:57:36;2.22;;;1.40;;
43311;SDS011;30041;48.300;16.352;2023-03-23T22:00:02;2.08;;;1.20;;
43311;SDS011;30041;48.300;16.352;2023-03-23T22:02:29;2.70;;;1.67;;
43311;SDS011;30041;48.300;16.352;2023-03-23T22:04:55;2.30;;;1.38;;
43311;SDS011;30041;48.300;16.352;2023-03-23T22:07:21;3.00;;;1.60;;
43311;SDS011;30041;48.300;16.352;2023-03-23T22:09:46;2.20;;;1.55;;
43311;SDS011;30041;48.300;16.352;2023-03-23T22:12:12;1.73;;;1.27;;
43311;SDS011;30041;48.300;16.352;2023-03-23T22:14:38;1.95;;;1.30;;
43311;SDS011;30041;48.300;16.352;2023-03-23T22:17:04;3.05;;;1.35;;
43311;SDS011;30041;48.300;16.352;2023-03-23T22:19:30;1.70;;;1.30;;
43311;SDS011;30041;48.300;16.352;2023-03-23T22:21:56;1.95;;;1.30;;
43311;SDS011;30041;48.300;16.352;2023-03-23T22:24:21;2.33;;;1.60;;
43311;SDS011;30041;48.300;16.352;2023-03-23T22:26:47;1.55;;;1.10;;
43311;SDS011;30041;48.300;16.352;2023-03-23T22:29:13;2.45;;;1.23;;
43311;SDS011;30041;48.300;16.352;2023-03-23T22:31:39;2.35;;;1.30;;
43311;SDS011;30041;48.300;16.352;2023-03-23T22:34:04;2.20;;;1.30;;
43311;SDS011;30041;48.300;16.352;2023-03-23T22:36:31;2.10;;;1.30;;
43311;SDS011;30041;48.300;16.352;2023-03-23T22:38:57;1.70;;;1.13;;
43311;SDS011;30041;48.300;16.352;2023-03-23T22:41:27;1.77;;;1.20;;
43311;SDS011;30041;48.300;16.352;2023-03-23T22:43:56;2.05;;;1.35;;
43311;SDS011;30041;48.300;16.352;2023-03-23T22:46:22;1.20;;;1.10;;
43311;SDS011;30041;48.300;16.352;2023-03-23T22:48:47;1.92;;;1.35;;
43311;SDS011;30041;48.300;16.352;2023-03-23T22:51:14;2.25;;;1.15;;
43311;SDS011;30041;48.300;16.352;2023-03-23T22:53:41;1.58;;;1.00;;
43311;SDS011;30041;48.300;16.352;2023-03-23T22:56:07;2.33;;;1.13;;
43311;SDS011;30041;48.300;16.352;2023-03-23T22:58:34;1.75;;;1.13;;
43311;SDS011;30041;48.300;16.352;2023-03-23T23:01:01;2.08;;;1.13;;
43311;SDS011;30041;48.300;16.352;2023-03-23T23:03:29;2.22;;;0.90;;
43311;SDS011;30041;48.300;16.352;2023-03-23T23:05:55;1.65;;;1.10;;
43311;SDS011;30041;48.300;16.352;2023-03-23T23:08:22;1.65;;;1.20;;
43311;SDS011;30041;48.300;16.352;2023-03-23T23:10:49;1.60;;;1.20;;
43311;SDS011;30041;48.300;16.352;2023-03-23T23:13:17;1.25;;;1.10;;
43311;SDS011;30041;48.300;16.352;2023-03-23T23:15:46;1.30;;;0.93;;
43311;SDS011;30041;48.300;16.352;2023-03-23T23:18:13;1.35;;;1.00;;
43311;SDS011;30041;48.300;16.352;2023-03-23T23:20:39;2.25;;;1.15;;
43311;SDS011;30041;48.300;16.352;2023-03-23T23:23:05;1.30;;;1.02;;
43311;SDS011;30041;48.300;16.352;2023-03-23T23:25:31;1.00;;;0.80;;
43311;SDS011;30041;48.300;16.352;2023-03-23T23:27:59;1.83;;;1.20;;
43311;SDS011;30041;48.300;16.352;2023-03-23T23:30:26;1.95;;;1.05;;
43311;SDS011;30041;48.300;16.352;2023-03-23T23:32:53;1.67;;;1.02;;
43311;SDS011;30041;48.300;16.352;2023-03-23T23:35:19;1.73;;;1.00;;
43311;SDS011;30041;48.300;16.352;2023-03-23T23:37:46;1.40;;;1.02;;
43311;SDS011;30041;48.300;16.352;2023-03-23T23:40:12;1.02;;;0.90;;
43311;SDS011;30041;48.300;16.352;2023-03-23T23:42:39;1.63;;;1.23;;
43311;SDS011;30041;48.300;16.352;2023-03-23T23:45:05;1.20;;;0.90;;
43311;SDS011;30041;48.300;16.352;2023-03-23T23:47:30;1.35;;;0.90;;
43311;SDS011;30041;48.300;16.352;2023-03-23T23:49:56;1.00;;;0.85;;
43311;SDS011;30041;48.300;16.352;2023-03-23T23:52:22;1.67;;;1.10;;
43311;SDS011;30041;48.300;16.352;2023-03-23T23:54:47;1.00;;;0.90;;
43311;SDS011;30041;48.300;16.352;2023-03-23T23:57:13;1.95;;;1.02;;
43311;SDS011;30041;48.300;16.352;2023-03-23T23:59:39;1.55;;;0.90;;
